sensor_id;sensor_type;location;lat;lon;timestamp;P1;durP1;ratioP1;P2;durP2;ratioP2
23360;SDS011;11852;50.082;18.554;2023-05-10T00:00:40;11.0;;;6.0;;
23360;SDS011;11852;50.082;18.554;2023-05-10T00:01:47;12.0;;;7.0;;
23360;SDS011;11852;50.082;18.554;2023-05-10T00:02:54;12.0;;;7.0;;
23360;SDS011;11852;50.082;18.554;2023-05-10T00:04:01;13.0;;;7.0;;
23360;SDS011;11852;50.082;18.554;2023-05-10T00:05:08;12.0;;;6.0;;
23360;SDS011;11852;50.082;18.554;2023-05-10T00:06:15;12.0;;;7.0;;
23360;SDS011;11852;50.082;18.554;2023-05-10T00:07:22;12.0;;;7.0;;
23360;SDS011;11852;50.082;18.554;2023-05-10T00:08:29;13.0;;;7.0;;
23360;SDS011;11852;50.082;18.554;2023-05-10T00:09:36;13.0;;;7.0;;
23360;SDS011;11852;50.082;18.554;2023-05-10T00:10:43;12.0;;;7.0;;
23360;SDS011;11852;50.082;18.554;2023-05-10T00:11:50;12.0;;;6.0;;
23360;SDS011;11852;50.082;18.554;2023-05-10T00:12:56;11.0;;;6.0;;
23360;SDS011;11852;50.082;18.554;2023-05-10T00:14:03;11.0;;;6.0;;
23360;SDS011;11852;50.082;18.554;2023-05-10T00:15:10;12.0;;;6.0;;
23360;SDS011;11852;50.082;18.554;2023-05-10T00:16:17;10.0;;;6.0;;
23360;SDS011;11852;50.082;18.554;2023-05-10T00:17:24;13.0;;;6.0;;
23360;SDS011;11852;50.082;18.554;2023-05-10T00:18:31;14.0;;;6.0;;
23360;SDS011;11852;50.082;18.554;2023-05-10T00:19:38;12.0;;;6.0;;
23360;SDS011;11852;50.082;18.554;2023-05-10T00:20:45;11.0;;;6.0;;
23360;SDS011;11852;50.082;18.554;2023-05-10T00:21:52;10.0;;;6.0;;
23360;SDS011;11852;50.082;18.554;2023-05-10T00:22:58;16.0;;;7.0;;
23360;SDS011;11852;50.082;18.554;2023-05-10T00:24:05;11.0;;;7.0;;
23360;SDS011;11852;50.082;18.554;2023-05-10T00:25:12;10.0;;;6.0;;
23360;SDS011;11852;50.082;18.554;2023-05-10T00:26:19;12.0;;;6.0;;
23360;SDS011;11852;50.082;18.554;2023-05-10T00:27:26;10.0;;;6.0;;
23360;SDS011;11852;50.082;18.554;2023-05-10T00:28:33;10.0;;;6.0;;
23360;SDS011;11852;50.082;18.554;2023-05-10T00:29:40;12.0;;;6.0;;
23360;SDS011;11852;50.082;18.554;2023-05-10T00:30:47;11.0;;;6.0;;
23360;SDS011;11852;50.082;18.554;2023-05-10T00:31:54;11.0;;;6.0;;
23360;SDS011;11852;50.082;18.554;2023-05-10T00:33:01;10.0;;;6.0;;
23360;SDS011;11852;50.082;18.554;2023-05-10T00:34:08;12.0;;;6.0;;
23360;SDS011;11852;50.082;18.554;2023-05-10T00:35:15;10.0;;;6.0;;
23360;SDS011;11852;50.082;18.554;2023-05-10T00:36:22;11.0;;;6.0;;
23360;SDS011;11852;50.082;18.554;2023-05-10T00:37:29;10.0;;;6.0;;
23360;SDS011;11852;50.082;18.554;2023-05-10T00:38:36;11.0;;;6.0;;
23360;SDS011;11852;50.082;18.554;2023-05-10T00:39:42;11.0;;;6.0;;
23360;SDS011;11852;50.082;18.554;2023-05-10T00:40:49;11.0;;;6.0;;
23360;SDS011;11852;50.082;18.554;2023-05-10T00:41:56;11.0;;;6.0;;
23360;SDS011;11852;50.082;18.554;2023-05-10T00:43:03;11.0;;;6.0;;
23360;SDS011;11852;50.082;18.554;2023-05-10T00:44:10;10.0;;;6.0;;
23360;SDS011;11852;50.082;18.554;2023-05-10T00:45:17;11.0;;;6.0;;
23360;SDS011;11852;50.082;18.554;2023-05-10T00:46:24;12.0;;;6.0;;
23360;SDS011;11852;50.082;18.554;2023-05-10T00:47:31;11.0;;;6.0;;
23360;SDS011;11852;50.082;18.554;2023-05-10T00:48:38;12.0;;;6.0;;
23360;SDS011;11852;50.082;18.554;2023-05-10T00:49:45;13.0;;;6.0;;
23360;SDS011;11852;50.082;18.554;2023-05-10T00:50:52;11.0;;;6.0;;
23360;SDS011;11852;50.082;18.554;2023-05-10T00:51:58;11.0;;;6.0;;
23360;SDS011;11852;50.082;18.554;2023-05-10T00:53:05;11.0;;;6.0;;
23360;SDS011;11852;50.082;18.554;2023-05-10T00:54:14;13.0;;;6.0;;
23360;SDS011;11852;50.082;18.554;2023-05-10T00:55:19;13.0;;;7.0;;
23360;SDS011;11852;50.082;18.554;2023-05-10T00:56:26;12.0;;;6.0;;
23360;SDS011;11852;50.082;18.554;2023-05-10T00:57:33;12.0;;;6.0;;
23360;SDS011;11852;50.082;18.554;2023-05-10T00:58:40;12.0;;;7.0;;
23360;SDS011;11852;50.082;18.554;2023-05-10T00:59:47;10.0;;;6.0;;
23360;SDS011;11852;50.082;18.554;2023-05-10T01:00:54;11.0;;;7.0;;
23360;SDS011;11852;50.082;18.554;2023-05-10T01:02:01;11.0;;;6.0;;
23360;SDS011;11852;50.082;18.554;2023-05-10T01:03:07;12.0;;;6.0;;
23360;SDS011;11852;50.082;18.554;2023-05-10T01:04:15;11.0;;;6.0;;
23360;SDS011;11852;50.082;18.554;2023-05-10T01:05:21;10.0;;;6.0;;
23360;SDS011;11852;50.082;18.554;2023-05-10T01:06:28;10.0;;;6.0;;
23360;SDS011;11852;50.082;18.554;2023-05-10T01:07:35;11.0;;;6.0;;
23360;SDS011;11852;50.082;18.554;2023-05-10T01:08:42;11.0;;;7.0;;
23360;SDS011;11852;50.082;18.554;2023-05-10T01:09:49;11.0;;;6.0;;
23360;SDS011;11852;50.082;18.554;2023-05-10T01:10:56;12.0;;;7.0;;
23360;SDS011;11852;50.082;18.554;2023-05-10T01:12:03;11.0;;;6.0;;
23360;SDS011;11852;50.082;18.554;2023-05-10T01:13:10;13.0;;;7.0;;
23360;SDS011;11852;50.082;18.554;2023-05-10T01:14:17;12.0;;;7.0;;
23360;SDS011;11852;50.082;18.554;2023-05-10T01:15:23;11.0;;;7.0;;
23360;SDS011;11852;50.082;18.554;2023-05-10T01:16:35;13.0;;;7.0;;
23360;SDS011;11852;50.082;18.554;2023-05-10T01:17:40;10.0;;;6.0;;
23360;SDS011;11852;50.082;18.554;2023-05-10T01:18:47;13.0;;;7.0;;
23360;SDS011;11852;50.082;18.554;2023-05-10T01:19:54;12.0;;;7.0;;
23360;SDS011;11852;50.082;18.554;2023-05-10T01:21:14;12.0;;;6.0;;
23360;SDS011;11852;50.082;18.554;2023-05-10T01:28:26;11.0;;;6.0;;
23360;SDS011;11852;50.082;18.554;2023-05-10T01:34:35;12.0;;;7.0;;
23360;SDS011;11852;50.082;18.554;2023-05-10T01:35:43;12.0;;;7.0;;
23360;SDS011;11852;50.082;18.554;2023-05-10T01:36:51;12.0;;;7.0;;
23360;SDS011;11852;50.082;18.554;2023-05-10T01:39:11;12.0;;;7.0;;
23360;SDS011;11852;50.082;18.554;2023-05-10T01:42:46;12.0;;;7.0;;
23360;SDS011;11852;50.082;18.554;2023-05-10T01:46:20;11.0;;;6.0;;
23360;SDS011;11852;50.082;18.554;2023-05-10T01:48:38;11.0;;;6.0;;
23360;SDS011;11852;50.082;18.554;2023-05-10T01:49:49;13.0;;;7.0;;
23360;SDS011;11852;50.082;18.554;2023-05-10T01:50:54;11.0;;;7.0;;
23360;SDS011;11852;50.082;18.554;2023-05-10T01:52:06;11.0;;;7.0;;
23360;SDS011;11852;50.082;18.554;2023-05-10T01:53:11;12.0;;;7.0;;
23360;SDS011;11852;50.082;18.554;2023-05-10T01:54:19;12.0;;;7.0;;
23360;SDS011;11852;50.082;18.554;2023-05-10T01:55:26;11.0;;;7.0;;
23360;SDS011;11852;50.082;18.554;2023-05-10T01:56:32;12.0;;;7.0;;
23360;SDS011;11852;50.082;18.554;2023-05-10T01:57:39;16.0;;;7.0;;
23360;SDS011;11852;50.082;18.554;2023-05-10T01:58:45;12.0;;;7.0;;
23360;SDS011;11852;50.082;18.554;2023-05-10T01:59:52;14.0;;;7.0;;
23360;SDS011;11852;50.082;18.554;2023-05-10T02:01:00;11.0;;;7.0;;
23360;SDS011;11852;50.082;18.554;2023-05-10T02:02:06;12.0;;;7.0;;
23360;SDS011;11852;50.082;18.554;2023-05-10T02:03:13;12.0;;;7.0;;
23360;SDS011;11852;50.082;18.554;2023-05-10T02:04:20;12.0;;;7.0;;
23360;SDS011;11852;50.082;18.554;2023-05-10T02:05:27;12.0;;;7.0;;
23360;SDS011;11852;50.082;18.554;2023-05-10T02:06:33;11.0;;;7.0;;
23360;SDS011;11852;50.082;18.554;2023-05-10T02:07:40;11.0;;;7.0;;
23360;SDS011;11852;50.082;18.554;2023-05-10T02:08:47;13.0;;;7.0;;
23360;SDS011;11852;50.082;18.554;2023-05-10T02:09:54;13.0;;;7.0;;
23360;SDS011;11852;50.082;18.554;2023-05-10T02:11:01;12.0;;;7.0;;
23360;SDS011;11852;50.082;18.554;2023-05-10T02:12:08;11.0;;;7.0;;
23360;SDS011;11852;50.082;18.554;2023-05-10T02:13:15;12.0;;;7.0;;
23360;SDS011;11852;50.082;18.554;2023-05-10T02:14:22;12.0;;;7.0;;
23360;SDS011;11852;50.082;18.554;2023-05-10T02:15:28;11.0;;;7.0;;
23360;SDS011;11852;50.082;18.554;2023-05-10T02:16:35;11.0;;;7.0;;
23360;SDS011;11852;50.082;18.554;2023-05-10T02:17:42;12.0;;;7.0;;
23360;SDS011;11852;50.082;18.554;2023-05-10T02:18:49;12.0;;;6.0;;
23360;SDS011;11852;50.082;18.554;2023-05-10T02:19:56;12.0;;;6.0;;
23360;SDS011;11852;50.082;18.554;2023-05-10T02:21:03;12.0;;;7.0;;
23360;SDS011;11852;50.082;18.554;2023-05-10T02:22:10;11.0;;;7.0;;
23360;SDS011;11852;50.082;18.554;2023-05-10T02:23:17;13.0;;;7.0;;
23360;SDS011;11852;50.082;18.554;2023-05-10T02:24:24;11.0;;;7.0;;
23360;SDS011;11852;50.082;18.554;2023-05-10T02:25:31;11.0;;;7.0;;
23360;SDS011;11852;50.082;18.554;2023-05-10T02:26:38;11.0;;;7.0;;
23360;SDS011;11852;50.082;18.554;2023-05-10T02:27:45;11.0;;;7.0;;
23360;SDS011;11852;50.082;18.554;2023-05-10T02:28:51;11.0;;;7.0;;
23360;SDS011;11852;50.082;18.554;2023-05-10T02:29:58;12.0;;;7.0;;
23360;SDS011;11852;50.082;18.554;2023-05-10T02:31:05;11.0;;;7.0;;
23360;SDS011;11852;50.082;18.554;2023-05-10T02:32:12;11.0;;;7.0;;
23360;SDS011;11852;50.082;18.554;2023-05-10T02:33:19;11.0;;;7.0;;
23360;SDS011;11852;50.082;18.554;2023-05-10T02:34:26;12.0;;;7.0;;
23360;SDS011;11852;50.082;18.554;2023-05-10T02:35:35;13.0;;;7.0;;
23360;SDS011;11852;50.082;18.554;2023-05-10T02:36:42;12.0;;;7.0;;
23360;SDS011;11852;50.082;18.554;2023-05-10T02:37:49;13.0;;;7.0;;
23360;SDS011;11852;50.082;18.554;2023-05-10T02:38:56;12.0;;;8.0;;
23360;SDS011;11852;50.082;18.554;2023-05-10T02:40:04;12.0;;;7.0;;
23360;SDS011;11852;50.082;18.554;2023-05-10T02:41:10;13.0;;;7.0;;
23360;SDS011;11852;50.082;18.554;2023-05-10T02:42:18;12.0;;;7.0;;
23360;SDS011;11852;50.082;18.554;2023-05-10T02:43:24;12.0;;;7.0;;
23360;SDS011;11852;50.082;18.554;2023-05-10T02:44:31;11.0;;;7.0;;
23360;SDS011;11852;50.082;18.554;2023-05-10T02:45:38;10.0;;;7.0;;
23360;SDS011;11852;50.082;18.554;2023-05-10T02:46:45;12.0;;;7.0;;
23360;SDS011;11852;50.082;18.554;2023-05-10T02:47:52;14.0;;;7.0;;
23360;SDS011;11852;50.082;18.554;2023-05-10T02:48:59;11.0;;;7.0;;
23360;SDS011;11852;50.082;18.554;2023-05-10T02:50:06;13.0;;;7.0;;
23360;SDS011;11852;50.082;18.554;2023-05-10T02:51:13;13.0;;;7.0;;
23360;SDS011;11852;50.082;18.554;2023-05-10T02:52:21;12.0;;;7.0;;
23360;SDS011;11852;50.082;18.554;2023-05-10T02:54:43;13.0;;;7.0;;
23360;SDS011;11852;50.082;18.554;2023-05-10T02:55:52;13.0;;;7.0;;
23360;SDS011;11852;50.082;18.554;2023-05-10T02:56:59;11.0;;;7.0;;
23360;SDS011;11852;50.082;18.554;2023-05-10T02:58:05;12.0;;;7.0;;
23360;SDS011;11852;50.082;18.554;2023-05-10T02:59:12;11.0;;;7.0;;
23360;SDS011;11852;50.082;18.554;2023-05-10T03:00:19;11.0;;;7.0;;
23360;SDS011;11852;50.082;18.554;2023-05-10T03:01:26;12.0;;;7.0;;
23360;SDS011;11852;50.082;18.554;2023-05-10T03:02:32;13.0;;;7.0;;
23360;SDS011;11852;50.082;18.554;2023-05-10T03:03:39;13.0;;;7.0;;
23360;SDS011;11852;50.082;18.554;2023-05-10T03:04:46;12.0;;;7.0;;
23360;SDS011;11852;50.082;18.554;2023-05-10T03:05:53;11.0;;;7.0;;
23360;SDS011;11852;50.082;18.554;2023-05-10T03:07:00;12.0;;;7.0;;
23360;SDS011;11852;50.082;18.554;2023-05-10T03:08:07;11.0;;;7.0;;
23360;SDS011;11852;50.082;18.554;2023-05-10T03:09:14;14.0;;;7.0;;
23360;SDS011;11852;50.082;18.554;2023-05-10T03:10:22;12.0;;;7.0;;
23360;SDS011;11852;50.082;18.554;2023-05-10T03:11:31;12.0;;;7.0;;
23360;SDS011;11852;50.082;18.554;2023-05-10T03:16:25;11.0;;;7.0;;
23360;SDS011;11852;50.082;18.554;2023-05-10T03:20:04;12.0;;;7.0;;
23360;SDS011;11852;50.082;18.554;2023-05-10T03:21:11;12.0;;;7.0;;
23360;SDS011;11852;50.082;18.554;2023-05-10T03:22:21;13.0;;;8.0;;
23360;SDS011;11852;50.082;18.554;2023-05-10T03:24:40;13.0;;;8.0;;
23360;SDS011;11852;50.082;18.554;2023-05-10T03:25:47;13.0;;;8.0;;
23360;SDS011;11852;50.082;18.554;2023-05-10T03:26:55;15.0;;;7.0;;
23360;SDS011;11852;50.082;18.554;2023-05-10T03:28:01;13.0;;;8.0;;
23360;SDS011;11852;50.082;18.554;2023-05-10T03:29:08;12.0;;;7.0;;
23360;SDS011;11852;50.082;18.554;2023-05-10T03:30:15;14.0;;;7.0;;
23360;SDS011;11852;50.082;18.554;2023-05-10T03:31:21;13.0;;;8.0;;
23360;SDS011;11852;50.082;18.554;2023-05-10T03:32:28;13.0;;;7.0;;
23360;SDS011;11852;50.082;18.554;2023-05-10T03:33:35;12.0;;;7.0;;
23360;SDS011;11852;50.082;18.554;2023-05-10T03:34:42;11.0;;;6.0;;
23360;SDS011;11852;50.082;18.554;2023-05-10T03:35:50;12.0;;;6.0;;
23360;SDS011;11852;50.082;18.554;2023-05-10T03:36:57;12.0;;;6.0;;
23360;SDS011;11852;50.082;18.554;2023-05-10T03:38:04;11.0;;;6.0;;
23360;SDS011;11852;50.082;18.554;2023-05-10T03:39:10;10.0;;;6.0;;
23360;SDS011;11852;50.082;18.554;2023-05-10T03:40:17;10.0;;;5.0;;
23360;SDS011;11852;50.082;18.554;2023-05-10T03:41:24;11.0;;;6.0;;
23360;SDS011;11852;50.082;18.554;2023-05-10T03:42:31;12.0;;;6.0;;
23360;SDS011;11852;50.082;18.554;2023-05-10T03:43:38;10.0;;;6.0;;
23360;SDS011;11852;50.082;18.554;2023-05-10T03:44:45;11.0;;;7.0;;
23360;SDS011;11852;50.082;18.554;2023-05-10T03:45:52;12.0;;;7.0;;
23360;SDS011;11852;50.082;18.554;2023-05-10T03:46:59;12.0;;;6.0;;
23360;SDS011;11852;50.082;18.554;2023-05-10T03:48:06;11.0;;;6.0;;
23360;SDS011;11852;50.082;18.554;2023-05-10T03:49:13;11.0;;;6.0;;
23360;SDS011;11852;50.082;18.554;2023-05-10T03:50:20;13.0;;;7.0;;
23360;SDS011;11852;50.082;18.554;2023-05-10T03:51:27;13.0;;;7.0;;
23360;SDS011;11852;50.082;18.554;2023-05-10T03:52:33;13.0;;;7.0;;
23360;SDS011;11852;50.082;18.554;2023-05-10T03:53:41;11.0;;;7.0;;
23360;SDS011;11852;50.082;18.554;2023-05-10T03:54:47;12.0;;;7.0;;
23360;SDS011;11852;50.082;18.554;2023-05-10T03:55:54;13.0;;;7.0;;
23360;SDS011;11852;50.082;18.554;2023-05-10T03:57:01;13.0;;;7.0;;
23360;SDS011;11852;50.082;18.554;2023-05-10T03:58:10;12.0;;;7.0;;
23360;SDS011;11852;50.082;18.554;2023-05-10T03:59:15;13.0;;;7.0;;
23360;SDS011;11852;50.082;18.554;2023-05-10T04:00:22;12.0;;;7.0;;
23360;SDS011;11852;50.082;18.554;2023-05-10T04:01:29;13.0;;;8.0;;
23360;SDS011;11852;50.082;18.554;2023-05-10T04:02:36;12.0;;;7.0;;
23360;SDS011;11852;50.082;18.554;2023-05-10T04:03:43;16.0;;;7.0;;
23360;SDS011;11852;50.082;18.554;2023-05-10T04:04:50;14.0;;;8.0;;
23360;SDS011;11852;50.082;18.554;2023-05-10T04:06:00;16.0;;;7.0;;
23360;SDS011;11852;50.082;18.554;2023-05-10T04:07:06;14.0;;;8.0;;
23360;SDS011;11852;50.082;18.554;2023-05-10T04:08:13;12.0;;;7.0;;
23360;SDS011;11852;50.082;18.554;2023-05-10T04:09:22;13.0;;;7.0;;
23360;SDS011;11852;50.082;18.554;2023-05-10T04:10:29;13.0;;;8.0;;
23360;SDS011;11852;50.082;18.554;2023-05-10T04:11:36;13.0;;;7.0;;
23360;SDS011;11852;50.082;18.554;2023-05-10T04:12:43;13.0;;;8.0;;
23360;SDS011;11852;50.082;18.554;2023-05-10T04:13:50;12.0;;;8.0;;
23360;SDS011;11852;50.082;18.554;2023-05-10T04:14:56;12.0;;;8.0;;
23360;SDS011;11852;50.082;18.554;2023-05-10T04:16:03;13.0;;;8.0;;
23360;SDS011;11852;50.082;18.554;2023-05-10T04:17:10;13.0;;;7.0;;
23360;SDS011;11852;50.082;18.554;2023-05-10T04:18:17;12.0;;;8.0;;
23360;SDS011;11852;50.082;18.554;2023-05-10T04:19:28;12.0;;;7.0;;
23360;SDS011;11852;50.082;18.554;2023-05-10T04:20:32;16.0;;;8.0;;
23360;SDS011;11852;50.082;18.554;2023-05-10T04:21:38;12.0;;;8.0;;
23360;SDS011;11852;50.082;18.554;2023-05-10T04:22:45;14.0;;;8.0;;
23360;SDS011;11852;50.082;18.554;2023-05-10T04:23:52;14.0;;;7.0;;
23360;SDS011;11852;50.082;18.554;2023-05-10T04:24:59;12.0;;;7.0;;
23360;SDS011;11852;50.082;18.554;2023-05-10T04:26:06;12.0;;;8.0;;
23360;SDS011;11852;50.082;18.554;2023-05-10T04:27:12;13.0;;;7.0;;
23360;SDS011;11852;50.082;18.554;2023-05-10T04:28:19;14.0;;;7.0;;
23360;SDS011;11852;50.082;18.554;2023-05-10T04:29:26;13.0;;;7.0;;
23360;SDS011;11852;50.082;18.554;2023-05-10T04:30:33;13.0;;;7.0;;
23360;SDS011;11852;50.082;18.554;2023-05-10T04:31:40;14.0;;;7.0;;
23360;SDS011;11852;50.082;18.554;2023-05-10T04:32:47;14.0;;;8.0;;
23360;SDS011;11852;50.082;18.554;2023-05-10T04:33:54;14.0;;;8.0;;
23360;SDS011;11852;50.082;18.554;2023-05-10T04:35:00;12.0;;;7.0;;
23360;SDS011;11852;50.082;18.554;2023-05-10T04:36:07;14.0;;;7.0;;
23360;SDS011;11852;50.082;18.554;2023-05-10T04:37:14;14.0;;;8.0;;
23360;SDS011;11852;50.082;18.554;2023-05-10T04:38:21;14.0;;;8.0;;
23360;SDS011;11852;50.082;18.554;2023-05-10T04:39:28;14.0;;;7.0;;
23360;SDS011;11852;50.082;18.554;2023-05-10T04:40:35;13.0;;;8.0;;
23360;SDS011;11852;50.082;18.554;2023-05-10T04:41:42;14.0;;;7.0;;
23360;SDS011;11852;50.082;18.554;2023-05-10T04:42:48;13.0;;;7.0;;
23360;SDS011;11852;50.082;18.554;2023-05-10T04:43:55;12.0;;;7.0;;
23360;SDS011;11852;50.082;18.554;2023-05-10T04:45:02;12.0;;;7.0;;
23360;SDS011;11852;50.082;18.554;2023-05-10T04:46:09;13.0;;;7.0;;
23360;SDS011;11852;50.082;18.554;2023-05-10T04:47:16;13.0;;;7.0;;
23360;SDS011;11852;50.082;18.554;2023-05-10T04:48:23;12.0;;;7.0;;
23360;SDS011;11852;50.082;18.554;2023-05-10T04:49:30;11.0;;;7.0;;
23360;SDS011;11852;50.082;18.554;2023-05-10T04:50:37;11.0;;;7.0;;
23360;SDS011;11852;50.082;18.554;2023-05-10T04:51:43;13.0;;;7.0;;
23360;SDS011;11852;50.082;18.554;2023-05-10T04:52:50;13.0;;;7.0;;
23360;SDS011;11852;50.082;18.554;2023-05-10T04:53:57;11.0;;;7.0;;
23360;SDS011;11852;50.082;18.554;2023-05-10T04:55:04;13.0;;;7.0;;
23360;SDS011;11852;50.082;18.554;2023-05-10T04:56:11;13.0;;;7.0;;
23360;SDS011;11852;50.082;18.554;2023-05-10T04:57:18;13.0;;;7.0;;
23360;SDS011;11852;50.082;18.554;2023-05-10T04:58:25;14.0;;;7.0;;
23360;SDS011;11852;50.082;18.554;2023-05-10T04:59:32;12.0;;;7.0;;
23360;SDS011;11852;50.082;18.554;2023-05-10T05:00:39;11.0;;;7.0;;
23360;SDS011;11852;50.082;18.554;2023-05-10T05:01:46;12.0;;;7.0;;
23360;SDS011;11852;50.082;18.554;2023-05-10T05:02:52;14.0;;;7.0;;
23360;SDS011;11852;50.082;18.554;2023-05-10T05:03:59;13.0;;;7.0;;
23360;SDS011;11852;50.082;18.554;2023-05-10T05:05:06;13.0;;;8.0;;
23360;SDS011;11852;50.082;18.554;2023-05-10T05:06:13;13.0;;;7.0;;
23360;SDS011;11852;50.082;18.554;2023-05-10T05:07:20;14.0;;;7.0;;
23360;SDS011;11852;50.082;18.554;2023-05-10T05:08:27;11.0;;;7.0;;
23360;SDS011;11852;50.082;18.554;2023-05-10T05:09:34;13.0;;;7.0;;
23360;SDS011;11852;50.082;18.554;2023-05-10T05:10:41;13.0;;;7.0;;
23360;SDS011;11852;50.082;18.554;2023-05-10T05:11:47;12.0;;;7.0;;
23360;SDS011;11852;50.082;18.554;2023-05-10T05:12:54;13.0;;;7.0;;
23360;SDS011;11852;50.082;18.554;2023-05-10T05:14:01;11.0;;;7.0;;
23360;SDS011;11852;50.082;18.554;2023-05-10T05:15:08;14.0;;;7.0;;
23360;SDS011;11852;50.082;18.554;2023-05-10T05:16:15;13.0;;;7.0;;
23360;SDS011;11852;50.082;18.554;2023-05-10T05:17:22;12.0;;;7.0;;
23360;SDS011;11852;50.082;18.554;2023-05-10T05:18:29;13.0;;;7.0;;
23360;SDS011;11852;50.082;18.554;2023-05-10T05:19:36;13.0;;;7.0;;
23360;SDS011;11852;50.082;18.554;2023-05-10T05:20:42;12.0;;;6.0;;
23360;SDS011;11852;50.082;18.554;2023-05-10T05:21:49;12.0;;;7.0;;
23360;SDS011;11852;50.082;18.554;2023-05-10T05:22:56;13.0;;;7.0;;
23360;SDS011;11852;50.082;18.554;2023-05-10T05:24:03;14.0;;;7.0;;
23360;SDS011;11852;50.082;18.554;2023-05-10T05:25:10;13.0;;;7.0;;
23360;SDS011;11852;50.082;18.554;2023-05-10T05:26:17;11.0;;;7.0;;
23360;SDS011;11852;50.082;18.554;2023-05-10T05:27:24;14.0;;;7.0;;
23360;SDS011;11852;50.082;18.554;2023-05-10T05:28:31;12.0;;;6.0;;
23360;SDS011;11852;50.082;18.554;2023-05-10T05:29:37;12.0;;;7.0;;
23360;SDS011;11852;50.082;18.554;2023-05-10T05:30:44;14.0;;;7.0;;
23360;SDS011;11852;50.082;18.554;2023-05-10T05:31:51;12.0;;;6.0;;
23360;SDS011;11852;50.082;18.554;2023-05-10T05:32:58;12.0;;;8.0;;
23360;SDS011;11852;50.082;18.554;2023-05-10T05:34:05;13.0;;;7.0;;
23360;SDS011;11852;50.082;18.554;2023-05-10T05:35:12;12.0;;;7.0;;
23360;SDS011;11852;50.082;18.554;2023-05-10T05:36:19;11.0;;;7.0;;
23360;SDS011;11852;50.082;18.554;2023-05-10T05:37:26;12.0;;;7.0;;
23360;SDS011;11852;50.082;18.554;2023-05-10T05:38:33;13.0;;;7.0;;
23360;SDS011;11852;50.082;18.554;2023-05-10T05:39:40;13.0;;;6.0;;
23360;SDS011;11852;50.082;18.554;2023-05-10T05:40:47;12.0;;;6.0;;
23360;SDS011;11852;50.082;18.554;2023-05-10T05:41:54;12.0;;;7.0;;
23360;SDS011;11852;50.082;18.554;2023-05-10T05:43:00;12.0;;;6.0;;
23360;SDS011;11852;50.082;18.554;2023-05-10T05:44:07;13.0;;;6.0;;
23360;SDS011;11852;50.082;18.554;2023-05-10T05:45:14;11.0;;;6.0;;
23360;SDS011;11852;50.082;18.554;2023-05-10T05:46:21;12.0;;;6.0;;
23360;SDS011;11852;50.082;18.554;2023-05-10T05:47:28;12.0;;;6.0;;
23360;SDS011;11852;50.082;18.554;2023-05-10T05:48:35;11.0;;;6.0;;
23360;SDS011;11852;50.082;18.554;2023-05-10T05:49:42;13.0;;;6.0;;
23360;SDS011;11852;50.082;18.554;2023-05-10T05:50:49;12.0;;;7.0;;
23360;SDS011;11852;50.082;18.554;2023-05-10T05:51:59;12.0;;;6.0;;
23360;SDS011;11852;50.082;18.554;2023-05-10T05:53:05;13.0;;;6.0;;
23360;SDS011;11852;50.082;18.554;2023-05-10T05:54:12;9.0;;;5.0;;
23360;SDS011;11852;50.082;18.554;2023-05-10T05:55:19;10.0;;;5.0;;
23360;SDS011;11852;50.082;18.554;2023-05-10T05:56:26;11.0;;;6.0;;
23360;SDS011;11852;50.082;18.554;2023-05-10T05:57:33;11.0;;;6.0;;
23360;SDS011;11852;50.082;18.554;2023-05-10T05:58:40;13.0;;;6.0;;
23360;SDS011;11852;50.082;18.554;2023-05-10T05:59:47;11.0;;;6.0;;
23360;SDS011;11852;50.082;18.554;2023-05-10T06:00:54;11.0;;;5.0;;
23360;SDS011;11852;50.082;18.554;2023-05-10T06:02:00;11.0;;;6.0;;
23360;SDS011;11852;50.082;18.554;2023-05-10T06:03:07;12.0;;;6.0;;
23360;SDS011;11852;50.082;18.554;2023-05-10T06:04:16;13.0;;;5.0;;
23360;SDS011;11852;50.082;18.554;2023-05-10T06:05:23;9.0;;;5.0;;
23360;SDS011;11852;50.082;18.554;2023-05-10T06:06:30;9.0;;;5.0;;
23360;SDS011;11852;50.082;18.554;2023-05-10T06:07:36;9.0;;;5.0;;
23360;SDS011;11852;50.082;18.554;2023-05-10T06:08:43;10.0;;;5.0;;
23360;SDS011;11852;50.082;18.554;2023-05-10T06:09:50;9.0;;;5.0;;
23360;SDS011;11852;50.082;18.554;2023-05-10T06:10:57;10.0;;;5.0;;
23360;SDS011;11852;50.082;18.554;2023-05-10T06:12:04;10.0;;;5.0;;
23360;SDS011;11852;50.082;18.554;2023-05-10T06:13:11;11.0;;;5.0;;
23360;SDS011;11852;50.082;18.554;2023-05-10T06:14:19;10.0;;;5.0;;
23360;SDS011;11852;50.082;18.554;2023-05-10T06:15:25;9.0;;;5.0;;
23360;SDS011;11852;50.082;18.554;2023-05-10T06:16:32;11.0;;;5.0;;
23360;SDS011;11852;50.082;18.554;2023-05-10T06:17:38;9.0;;;5.0;;
23360;SDS011;11852;50.082;18.554;2023-05-10T06:18:45;9.0;;;5.0;;
23360;SDS011;11852;50.082;18.554;2023-05-10T06:19:52;11.0;;;5.0;;
23360;SDS011;11852;50.082;18.554;2023-05-10T06:20:59;10.0;;;5.0;;
23360;SDS011;11852;50.082;18.554;2023-05-10T06:22:06;10.0;;;5.0;;
23360;SDS011;11852;50.082;18.554;2023-05-10T06:23:13;11.0;;;5.0;;
23360;SDS011;11852;50.082;18.554;2023-05-10T06:24:20;8.0;;;5.0;;
23360;SDS011;11852;50.082;18.554;2023-05-10T06:25:27;9.0;;;5.0;;
23360;SDS011;11852;50.082;18.554;2023-05-10T06:26:34;9.0;;;5.0;;
23360;SDS011;11852;50.082;18.554;2023-05-10T06:27:40;11.0;;;5.0;;
23360;SDS011;11852;50.082;18.554;2023-05-10T06:28:47;8.0;;;5.0;;
23360;SDS011;11852;50.082;18.554;2023-05-10T06:29:55;10.0;;;5.0;;
23360;SDS011;11852;50.082;18.554;2023-05-10T06:31:02;14.0;;;5.0;;
23360;SDS011;11852;50.082;18.554;2023-05-10T06:32:09;10.0;;;5.0;;
23360;SDS011;11852;50.082;18.554;2023-05-10T06:33:16;12.0;;;4.0;;
23360;SDS011;11852;50.082;18.554;2023-05-10T06:34:23;9.0;;;4.0;;
23360;SDS011;11852;50.082;18.554;2023-05-10T06:35:30;11.0;;;4.0;;
23360;SDS011;11852;50.082;18.554;2023-05-10T06:36:37;9.0;;;4.0;;
23360;SDS011;11852;50.082;18.554;2023-05-10T06:37:44;7.0;;;4.0;;
23360;SDS011;11852;50.082;18.554;2023-05-10T06:38:50;8.0;;;4.0;;
23360;SDS011;11852;50.082;18.554;2023-05-10T06:39:57;10.0;;;4.0;;
23360;SDS011;11852;50.082;18.554;2023-05-10T06:41:04;11.0;;;5.0;;
23360;SDS011;11852;50.082;18.554;2023-05-10T06:42:11;7.0;;;5.0;;
23360;SDS011;11852;50.082;18.554;2023-05-10T06:43:18;9.0;;;4.0;;
23360;SDS011;11852;50.082;18.554;2023-05-10T06:44:25;10.0;;;4.0;;
23360;SDS011;11852;50.082;18.554;2023-05-10T06:45:33;10.0;;;5.0;;
23360;SDS011;11852;50.082;18.554;2023-05-10T06:46:40;9.0;;;5.0;;
23360;SDS011;11852;50.082;18.554;2023-05-10T06:47:47;7.0;;;4.0;;
23360;SDS011;11852;50.082;18.554;2023-05-10T06:48:53;11.0;;;4.0;;
23360;SDS011;11852;50.082;18.554;2023-05-10T06:50:00;7.0;;;4.0;;
23360;SDS011;11852;50.082;18.554;2023-05-10T06:51:08;10.0;;;4.0;;
23360;SDS011;11852;50.082;18.554;2023-05-10T06:52:15;10.0;;;4.0;;
23360;SDS011;11852;50.082;18.554;2023-05-10T06:53:21;8.0;;;4.0;;
23360;SDS011;11852;50.082;18.554;2023-05-10T06:54:28;8.0;;;4.0;;
23360;SDS011;11852;50.082;18.554;2023-05-10T06:55:35;9.0;;;4.0;;
23360;SDS011;11852;50.082;18.554;2023-05-10T06:56:42;8.0;;;4.0;;
23360;SDS011;11852;50.082;18.554;2023-05-10T06:57:49;7.0;;;4.0;;
23360;SDS011;11852;50.082;18.554;2023-05-10T06:58:56;7.0;;;4.0;;
23360;SDS011;11852;50.082;18.554;2023-05-10T07:00:03;6.0;;;4.0;;
23360;SDS011;11852;50.082;18.554;2023-05-10T07:01:09;8.0;;;3.0;;
23360;SDS011;11852;50.082;18.554;2023-05-10T07:02:16;7.0;;;3.0;;
23360;SDS011;11852;50.082;18.554;2023-05-10T07:03:23;7.0;;;4.0;;
23360;SDS011;11852;50.082;18.554;2023-05-10T07:04:30;8.0;;;4.0;;
23360;SDS011;11852;50.082;18.554;2023-05-10T07:05:37;9.0;;;4.0;;
23360;SDS011;11852;50.082;18.554;2023-05-10T07:06:44;7.0;;;3.0;;
23360;SDS011;11852;50.082;18.554;2023-05-10T07:07:51;7.0;;;4.0;;
23360;SDS011;11852;50.082;18.554;2023-05-10T07:08:58;10.0;;;4.0;;
23360;SDS011;11852;50.082;18.554;2023-05-10T07:10:05;8.0;;;4.0;;
23360;SDS011;11852;50.082;18.554;2023-05-10T07:11:12;8.0;;;4.0;;